Time;durP1;ratioP1;P1;durP2;ratioP2;P2;SDS_P1;SDS_P2;PMS_P1;PMS_P2;Temp;Humidity;BMP_temperature;BMP_pressure;BME280_temperature;BME280_humidity;BME280_pressure;Samples;Min_cycle;Max_cycle;Signal;HPM_P1;HPM_P2
2023/08/25 00:01:57;;;;;;;7.13;3.55;;;;;;;;;;5129881;27;20075;-73
2023/08/25 00:04:24;;;;;;;8.63;3.78;;;;;;;;;;5129507;27;20054;-73
2023/08/25 00:06:50;;;;;;;6.75;3.50;;;;;;;;;;5129826;27;20039;-73
2023/08/25 00:09:17;;;;;;;6.63;3.38;;;;;;;;;;5128976;27;20461;-74
2023/08/25 00:11:44;;;;;;;10.35;3.80;;;;;;;;;;5129622;27;20051;-73
2023/08/25 00:14:11;;;;;;;8.60;3.42;;;;;;;;;;5129840;27;20043;-74
2023/08/25 00:16:37;;;;;;;11.52;3.78;;;;;;;;;;5130008;27;20043;-74
2023/08/25 00:19:04;;;;;;;9.73;3.53;;;;;;;;;;5129904;27;20055;-74
2023/08/25 00:21:31;;;;;;;6.25;3.25;;;;;;;;;;5129280;27;20043;-74
2023/08/25 00:23:58;;;;;;;9.23;3.05;;;;;;;;;;5129419;27;20040;-74
2023/08/25 00:26:24;;;;;;;7.22;3.50;;;;;;;;;;5129114;27;20043;-74
2023/08/25 00:28:51;;;;;;;9.80;3.47;;;;;;;;;;5131005;27;20051;-74
2023/08/25 00:31:18;;;;;;;7.93;3.22;;;;;;;;;;5149791;27;20050;-75
2023/08/25 00:33:49;;;;;;;8.98;3.42;;;;;;;;;;5149987;27;20054;-73
2023/08/25 00:36:18;;;;;;;10.60;3.80;;;;;;;;;;5150006;27;20494;-74
2023/08/25 00:38:45;;;;;;;9.32;3.30;;;;;;;;;;5149872;27;20111;-73
2023/08/25 00:41:12;;;;;;;14.18;3.70;;;;;;;;;;5149623;27;20043;-73
2023/08/25 00:43:39;;;;;;;6.35;3.00;;;;;;;;;;5149922;27;20043;-73
2023/08/25 00:46:07;;;;;;;9.27;3.30;;;;;;;;;;5149867;27;20070;-74
2023/08/25 00:48:35;;;;;;;10.23;3.40;;;;;;;;;;5150242;27;20070;-74
2023/08/25 00:51:04;;;;;;;8.77;3.40;;;;;;;;;;5149967;27;20054;-73
2023/08/25 00:53:32;;;;;;;7.60;3.60;;;;;;;;;;5149618;27;20043;-74
2023/08/25 00:56:00;;;;;;;8.40;3.08;;;;;;;;;;5146824;27;20556;-74
2023/08/25 00:58:27;;;;;;;7.70;3.17;;;;;;;;;;5129443;27;20043;-73
2023/08/25 01:00:54;;;;;;;8.40;3.67;;;;;;;;;;5128808;28;20047;-73
2023/08/25 01:03:22;;;;;;;8.30;3.35;;;;;;;;;;5129148;28;20047;-73
2023/08/25 01:05:49;;;;;;;8.48;3.30;;;;;;;;;;5130941;27;20146;-74
2023/08/25 01:08:17;;;;;;;5.80;3.05;;;;;;;;;;5132936;27;20054;-72
2023/08/25 01:11:00;;;;;;;10.52;3.42;;;;;;;;;;5131144;27;20050;-73
2023/08/25 01:13:42;;;;;;;7.40;3.28;;;;;;;;;;5135923;27;20046;-73
2023/08/25 01:16:14;;;;;;;12.98;3.65;;;;;;;;;;5153179;27;20417;-73
2023/08/25 01:18:42;;;;;;;8.35;3.15;;;;;;;;;;5153267;27;20046;-73
2023/08/25 01:21:11;;;;;;;10.70;3.40;;;;;;;;;;5153051;27;20047;-74
2023/08/25 01:23:37;;;;;;;9.50;3.65;;;;;;;;;;5153315;27;20050;-73
2023/08/25 01:26:05;;;;;;;6.43;3.20;;;;;;;;;;5153503;27;20525;-73
2023/08/25 01:28:31;;;;;;;9.13;3.40;;;;;;;;;;5153384;27;20681;-73
2023/08/25 01:30:59;;;;;;;5.30;3.10;;;;;;;;;;5153130;27;20046;-73
2023/08/25 01:33:30;;;;;;;9.52;3.50;;;;;;;;;;5146760;27;20051;-73
2023/08/25 01:36:23;;;;;;;6.88;3.70;;;;;;;;;;5130902;27;20047;-73
2023/08/25 01:39:08;;;;;;;9.52;3.40;;;;;;;;;;5132079;27;20794;-73
2023/08/25 01:41:42;;;;;;;8.18;3.30;;;;;;;;;;5132404;27;20071;-73
2023/08/25 01:44:13;;;;;;;6.88;3.15;;;;;;;;;;5133016;27;20055;-73
2023/08/25 01:46:43;;;;;;;14.57;3.80;;;;;;;;;;5132079;27;20522;-74
2023/08/25 01:49:11;;;;;;;9.05;3.40;;;;;;;;;;5132679;27;20054;-73
2023/08/25 01:51:39;;;;;;;9.88;4.28;;;;;;;;;;5132001;27;20070;-73
2023/08/25 01:54:06;;;;;;;4.95;3.15;;;;;;;;;;5137779;27;20042;-74
2023/08/25 01:56:32;;;;;;;7.10;2.97;;;;;;;;;;5152672;27;20094;-73
2023/08/25 01:58:59;;;;;;;6.78;3.67;;;;;;;;;;5153021;27;20042;-73
2023/08/25 02:01:27;;;;;;;8.18;3.53;;;;;;;;;;5152734;27;20042;-74
2023/08/25 02:03:53;;;;;;;5.53;3.33;;;;;;;;;;5153016;27;20180;-73
2023/08/25 02:06:20;;;;;;;9.05;3.72;;;;;;;;;;5152795;27;20161;-73
2023/08/25 02:08:49;;;;;;;8.13;3.42;;;;;;;;;;5152199;27;20038;-73
2023/08/25 02:11:15;;;;;;;6.53;3.30;;;;;;;;;;5152594;27;20050;-73
2023/08/25 02:13:42;;;;;;;8.35;3.55;;;;;;;;;;5152855;27;20046;-73
2023/08/25 02:16:09;;;;;;;6.35;3.05;;;;;;;;;;5152750;27;20069;-73
2023/08/25 02:18:36;;;;;;;8.88;3.53;;;;;;;;;;5152766;27;20053;-73
2023/08/25 02:21:02;;;;;;;6.53;3.60;;;;;;;;;;5152254;27;20043;-73
2023/08/25 02:23:29;;;;;;;10.50;3.70;;;;;;;;;;5152143;27;20043;-73
2023/08/25 02:25:56;;;;;;;11.63;3.30;;;;;;;;;;5152172;27;20046;-73
2023/08/25 02:28:25;;;;;;;6.60;3.25;;;;;;;;;;5151941;27;20039;-73
2023/08/25 02:30:52;;;;;;;6.10;3.30;;;;;;;;;;5151990;27;20503;-73
2023/08/25 02:33:19;;;;;;;6.93;3.33;;;;;;;;;;5151686;27;20062;-74
2023/08/25 02:35:46;;;;;;;7.82;3.22;;;;;;;;;;5152043;27;20407;-73
2023/08/25 02:38:12;;;;;;;4.57;2.83;;;;;;;;;;5151589;27;20039;-73
2023/08/25 02:40:39;;;;;;;8.57;3.30;;;;;;;;;;5152340;27;20046;-73
2023/08/25 02:43:07;;;;;;;6.72;2.80;;;;;;;;;;5136416;27;20043;-72
2023/08/25 02:45:35;;;;;;;8.02;3.30;;;;;;;;;;5130211;27;20047;-73
2023/08/25 02:48:02;;;;;;;7.93;3.00;;;;;;;;;;5131000;27;20043;-73
2023/08/25 02:50:29;;;;;;;6.85;3.03;;;;;;;;;;5131382;27;20064;-73
2023/08/25 02:52:56;;;;;;;4.93;3.15;;;;;;;;;;5143832;27;20387;-73
2023/08/25 02:55:26;;;;;;;4.55;2.80;;;;;;;;;;5151686;27;20100;-74
2023/08/25 02:57:53;;;;;;;6.15;2.90;;;;;;;;;;5151599;27;20380;-73
2023/08/25 03:00:23;;;;;;;4.93;2.58;;;;;;;;;;5151235;27;20141;-73
2023/08/25 03:02:51;;;;;;;6.70;3.13;;;;;;;;;;5151086;27;20413;-74
2023/08/25 03:05:21;;;;;;;6.07;2.72;;;;;;;;;;5151714;27;20074;-73
2023/08/25 03:07:50;;;;;;;5.85;3.03;;;;;;;;;;5150785;27;20043;-75
2023/08/25 03:10:17;;;;;;;6.75;2.70;;;;;;;;;;5151269;27;20134;-74
2023/08/25 03:12:44;;;;;;;9.52;3.22;;;;;;;;;;5151228;27;20077;-74
2023/08/25 03:15:11;;;;;;;5.65;2.70;;;;;;;;;;5151681;27;20042;-74
2023/08/25 03:17:37;;;;;;;8.90;3.40;;;;;;;;;;5151161;27;20053;-74
2023/08/25 03:20:08;;;;;;;3.60;2.53;;;;;;;;;;5151311;27;20051;-74
2023/08/25 03:22:34;;;;;;;4.45;2.65;;;;;;;;;;5150378;27;20622;-72
2023/08/25 03:25:01;;;;;;;5.35;2.58;;;;;;;;;;5150999;27;20058;-73
2023/08/25 03:27:28;;;;;;;7.15;2.88;;;;;;;;;;5150538;27;20390;-74
2023/08/25 03:29:54;;;;;;;6.03;2.92;;;;;;;;;;5150901;27;20546;-73
2023/08/25 03:32:23;;;;;;;4.60;2.80;;;;;;;;;;5150569;27;20051;-73
2023/08/25 03:34:50;;;;;;;6.28;2.88;;;;;;;;;;5150976;27;20054;-73
2023/08/25 03:37:17;;;;;;;5.30;2.60;;;;;;;;;;5150956;27;20047;-73
2023/08/25 03:39:43;;;;;;;5.53;2.70;;;;;;;;;;5150189;27;20058;-74
2023/08/25 03:42:10;;;;;;;7.03;3.10;;;;;;;;;;5150453;27;20046;-73
2023/08/25 03:44:37;;;;;;;6.53;2.97;;;;;;;;;;5150886;27;20054;-72
2023/08/25 03:47:04;;;;;;;4.03;2.63;;;;;;;;;;5150835;27;20078;-73
2023/08/25 03:49:32;;;;;;;5.20;2.88;;;;;;;;;;5150593;27;20043;-74
2023/08/25 03:51:59;;;;;;;5.80;3.10;;;;;;;;;;5150590;27;20039;-73
2023/08/25 03:54:30;;;;;;;6.57;3.05;;;;;;;;;;5150263;27;20042;-73
2023/08/25 03:56:57;;;;;;;6.25;3.13;;;;;;;;;;5150481;27;20062;-73
2023/08/25 03:59:24;;;;;;;5.38;2.83;;;;;;;;;;5150171;27;20042;-73
2023/08/25 04:01:51;;;;;;;5.68;2.83;;;;;;;;;;5150162;27;20042;-74
2023/08/25 04:04:17;;;;;;;7.50;3.45;;;;;;;;;;5150566;27;20042;-74
2023/08/25 04:06:44;;;;;;;5.78;3.20;;;;;;;;;;5150654;27;20046;-74
2023/08/25 04:09:13;;;;;;;8.38;3.17;;;;;;;;;;5149914;27;20062;-73
2023/08/25 04:11:39;;;;;;;7.93;3.13;;;;;;;;;;5150381;27;20042;-73
2023/08/25 04:14:06;;;;;;;6.50;3.05;;;;;;;;;;5149824;27;20050;-74
2023/08/25 04:16:32;;;;;;;5.75;2.90;;;;;;;;;;5150322;27;20173;-73
2023/08/25 04:18:59;;;;;;;11.30;3.25;;;;;;;;;;5150307;27;20050;-73
2023/08/25 04:21:29;;;;;;;10.02;3.80;;;;;;;;;;5150339;27;20441;-73
2023/08/25 04:23:55;;;;;;;7.88;3.30;;;;;;;;;;5149543;27;20054;-73
2023/08/25 04:26:22;;;;;;;5.97;3.25;;;;;;;;;;5150097;27;20047;-73
2023/08/25 04:28:49;;;;;;;9.05;3.50;;;;;;;;;;5149829;27;20050;-73
2023/08/25 04:31:15;;;;;;;10.95;3.60;;;;;;;;;;5150077;27;20046;-73
2023/08/25 04:33:42;;;;;;;6.15;3.20;;;;;;;;;;5149246;27;20142;-73
2023/08/25 04:36:12;;;;;;;8.63;3.53;;;;;;;;;;5149989;27;20049;-73
2023/08/25 04:38:39;;;;;;;8.23;4.00;;;;;;;;;;5149561;27;20118;-75
2023/08/25 04:41:05;;;;;;;11.77;3.80;;;;;;;;;;5152771;27;20106;-73
2023/08/25 04:43:32;;;;;;;5.40;3.13;;;;;;;;;;5153702;27;20047;-73
2023/08/25 04:45:59;;;;;;;11.82;3.65;;;;;;;;;;5154376;27;20047;-74
2023/08/25 04:48:25;;;;;;;7.57;3.28;;;;;;;;;;5154288;27;20281;-73
2023/08/25 04:50:52;;;;;;;6.28;3.15;;;;;;;;;;5153810;27;20053;-74
2023/08/25 04:53:18;;;;;;;9.68;3.08;;;;;;;;;;5153806;27;20047;-73
2023/08/25 04:55:47;;;;;;;7.18;3.35;;;;;;;;;;5154101;27;20046;-73
2023/08/25 04:58:13;;;;;;;9.38;3.10;;;;;;;;;;5153738;27;20625;-73
2023/08/25 05:00:40;;;;;;;8.32;3.08;;;;;;;;;;5154168;27;20042;-73
2023/08/25 05:03:07;;;;;;;5.88;2.90;;;;;;;;;;5153849;27;20138;-73
2023/08/25 05:05:34;;;;;;;8.45;2.92;;;;;;;;;;5153843;27;20467;-73
2023/08/25 05:08:04;;;;;;;10.75;3.05;;;;;;;;;;5153320;27;20038;-73
2023/08/25 05:10:34;;;;;;;5.05;2.67;;;;;;;;;;5153856;27;20042;-74
2023/08/25 05:13:04;;;;;;;7.68;2.80;;;;;;;;;;5153541;27;20043;-73
2023/08/25 05:15:32;;;;;;;8.48;2.85;;;;;;;;;;5154023;27;20047;-73
2023/08/25 05:17:59;;;;;;;5.60;2.88;;;;;;;;;;5153573;27;20131;-74
2023/08/25 05:20:25;;;;;;;8.27;3.28;;;;;;;;;;5153446;27;20403;-74
2023/08/25 05:22:52;;;;;;;7.00;2.78;;;;;;;;;;5152968;27;20051;-74
2023/08/25 05:25:21;;;;;;;6.53;2.72;;;;;;;;;;5153174;27;20050;-75
2023/08/25 05:27:48;;;;;;;6.97;2.63;;;;;;;;;;5153517;27;20043;-74
2023/08/25 05:30:15;;;;;;;6.65;2.72;;;;;;;;;;5153325;27;20517;-74
2023/08/25 05:32:43;;;;;;;6.35;2.80;;;;;;;;;;5152870;27;20046;-75
2023/08/25 05:35:10;;;;;;;9.10;2.83;;;;;;;;;;5152226;27;20050;-73
2023/08/25 05:37:36;;;;;;;5.55;2.60;;;;;;;;;;5151584;27;20043;-74
2023/08/25 05:40:06;;;;;;;5.45;2.88;;;;;;;;;;5151796;27;20398;-75
2023/08/25 05:42:38;;;;;;;8.75;2.88;;;;;;;;;;5152139;27;20051;-74
2023/08/25 05:45:06;;;;;;;9.07;3.00;;;;;;;;;;5151408;27;20474;-73
2023/08/25 05:47:34;;;;;;;7.95;2.88;;;;;;;;;;5151783;27;20045;-73
2023/08/25 05:50:01;;;;;;;8.45;2.85;;;;;;;;;;5151297;27;20145;-73
2023/08/25 05:52:31;;;;;;;9.00;3.10;;;;;;;;;;5150968;27;20039;-74
2023/08/25 05:54:57;;;;;;;5.82;2.72;;;;;;;;;;5151430;27;20038;-74
2023/08/25 05:57:24;;;;;;;5.97;2.15;;;;;;;;;;5151763;27;20042;-73
2023/08/25 05:59:51;;;;;;;5.57;2.70;;;;;;;;;;5151355;27;20039;-74
2023/08/25 06:02:18;;;;;;;6.88;2.75;;;;;;;;;;5151357;27;20054;-75
2023/08/25 06:04:47;;;;;;;10.20;2.75;;;;;;;;;;5150409;27;20134;-73
2023/08/25 06:07:14;;;;;;;6.18;3.03;;;;;;;;;;5151818;27;20043;-73
2023/08/25 06:09:41;;;;;;;7.78;2.70;;;;;;;;;;5150616;27;20054;-73
2023/08/25 06:12:08;;;;;;;7.57;2.53;;;;;;;;;;5151266;27;20130;-73
2023/08/25 06:14:38;;;;;;;6.32;2.78;;;;;;;;;;5151205;27;20130;-73
2023/08/25 06:17:04;;;;;;;7.20;2.80;;;;;;;;;;5151391;27;20046;-73
2023/08/25 06:19:32;;;;;;;10.88;2.83;;;;;;;;;;5149792;27;20049;-73
2023/08/25 06:21:59;;;;;;;10.10;2.88;;;;;;;;;;5151375;27;20146;-74
2023/08/25 06:24:25;;;;;;;5.80;2.90;;;;;;;;;;5150854;27;20050;-73
2023/08/25 06:26:52;;;;;;;13.80;3.05;;;;;;;;;;5151622;27;20110;-73
2023/08/25 06:29:19;;;;;;;9.40;3.08;;;;;;;;;;5150721;27;20047;-74
2023/08/25 06:31:46;;;;;;;9.95;2.75;;;;;;;;;;5150934;27;20039;-74
2023/08/25 06:34:13;;;;;;;8.68;2.65;;;;;;;;;;5151385;27;20068;-73
2023/08/25 06:36:39;;;;;;;5.78;2.53;;;;;;;;;;5151988;27;20042;-73
2023/08/25 06:39:06;;;;;;;7.10;3.10;;;;;;;;;;5151414;27;20047;-73
2023/08/25 06:41:33;;;;;;;5.22;2.58;;;;;;;;;;5152145;27;20082;-73
2023/08/25 06:44:00;;;;;;;5.32;2.60;;;;;;;;;;5151654;27;20047;-73
2023/08/25 06:46:26;;;;;;;10.45;3.30;;;;;;;;;;5151799;27;20122;-73
2023/08/25 06:48:53;;;;;;;7.45;2.72;;;;;;;;;;5151819;27;20039;-73
2023/08/25 06:51:20;;;;;;;8.07;2.75;;;;;;;;;;5151634;27;20066;-73
2023/08/25 06:53:47;;;;;;;12.02;2.78;;;;;;;;;;5151199;27;20119;-73
2023/08/25 06:56:13;;;;;;;8.40;2.90;;;;;;;;;;5151734;27;20051;-73
2023/08/25 06:58:40;;;;;;;9.30;3.17;;;;;;;;;;5151526;27;20038;-73
2023/08/25 07:01:07;;;;;;;8.02;2.67;;;;;;;;;;5151393;27;20530;-73
2023/08/25 07:03:36;;;;;;;8.10;2.67;;;;;;;;;;5150686;27;20126;-74
2023/08/25 07:06:15;;;;;;;7.15;2.60;;;;;;;;;;5151327;27;20046;-75
2023/08/25 07:08:42;;;;;;;6.60;2.85;;;;;;;;;;5150691;27;20062;-73
2023/08/25 07:11:11;;;;;;;8.65;2.88;;;;;;;;;;5151560;27;20049;-73
2023/08/25 07:13:38;;;;;;;10.23;2.80;;;;;;;;;;5151497;27;20051;-74
2023/08/25 07:16:04;;;;;;;7.68;2.60;;;;;;;;;;5151202;27;20047;-74
2023/08/25 07:18:31;;;;;;;5.85;2.45;;;;;;;;;;5151345;27;20042;-73
2023/08/25 07:21:03;;;;;;;4.90;2.70;;;;;;;;;;5151018;27;20132;-73
2023/08/25 07:23:30;;;;;;;13.07;2.80;;;;;;;;;;5150612;27;20043;-74
2023/08/25 07:25:56;;;;;;;6.63;2.70;;;;;;;;;;5150759;27;20042;-75
2023/08/25 07:28:23;;;;;;;7.05;2.90;;;;;;;;;;5151301;27;20047;-74
2023/08/25 07:30:51;;;;;;;4.97;2.67;;;;;;;;;;5150868;27;20051;-73
2023/08/25 07:33:18;;;;;;;8.48;2.92;;;;;;;;;;5151047;27;20058;-74
2023/08/25 07:35:46;;;;;;;6.60;2.60;;;;;;;;;;5150814;27;20448;-73
2023/08/25 07:38:13;;;;;;;8.68;2.83;;;;;;;;;;5150593;27;20509;-73
2023/08/25 07:40:41;;;;;;;5.00;2.35;;;;;;;;;;5150336;27;20046;-74
2023/08/25 07:43:07;;;;;;;5.68;2.50;;;;;;;;;;5151122;27;20043;-73
2023/08/25 07:45:35;;;;;;;5.18;2.45;;;;;;;;;;5150544;27;20091;-74
2023/08/25 07:48:02;;;;;;;5.85;2.55;;;;;;;;;;5150953;27;20125;-73
2023/08/25 07:50:30;;;;;;;6.43;2.80;;;;;;;;;;5150683;27;20158;-73
2023/08/25 07:52:58;;;;;;;8.57;2.78;;;;;;;;;;5150405;27;20221;-74
2023/08/25 07:55:25;;;;;;;5.10;2.42;;;;;;;;;;5149058;27;20043;-73
2023/08/25 07:57:52;;;;;;;6.85;2.47;;;;;;;;;;5150461;27;20043;-74
2023/08/25 08:00:20;;;;;;;7.35;2.25;;;;;;;;;;5150009;27;20522;-74
2023/08/25 08:02:48;;;;;;;5.60;2.47;;;;;;;;;;5150457;27;20043;-74
2023/08/25 08:05:17;;;;;;;10.68;2.65;;;;;;;;;;5149159;27;20047;-74
2023/08/25 08:07:45;;;;;;;11.18;2.60;;;;;;;;;;5150627;27;20095;-73
2023/08/25 08:10:12;;;;;;;5.65;2.65;;;;;;;;;;5150404;27;20058;-74
2023/08/25 08:12:44;;;;;;;6.97;2.70;;;;;;;;;;5150903;27;20053;-73
2023/08/25 08:15:12;;;;;;;12.55;2.53;;;;;;;;;;5149775;27;20054;-73
2023/08/25 08:17:40;;;;;;;6.15;2.35;;;;;;;;;;5150148;27;20043;-73
2023/08/25 08:20:12;;;;;;;7.13;2.40;;;;;;;;;;5150097;27;20129;-74
2023/08/25 08:22:40;;;;;;;8.02;2.45;;;;;;;;;;5150085;27;20103;-73
2023/08/25 08:25:11;;;;;;;9.85;2.63;;;;;;;;;;5150115;27;20121;-73
2023/08/25 08:27:40;;;;;;;7.78;2.72;;;;;;;;;;5150587;27;20046;-72
2023/08/25 08:30:07;;;;;;;5.25;2.22;;;;;;;;;;5150217;27;20670;-73
2023/08/25 08:32:35;;;;;;;10.07;2.45;;;;;;;;;;5150234;27;20136;-73
2023/08/25 08:35:08;;;;;;;7.50;2.45;;;;;;;;;;5149953;27;20042;-73
2023/08/25 08:37:36;;;;;;;7.10;2.63;;;;;;;;;;5149977;27;20047;-73
2023/08/25 08:40:09;;;;;;;9.77;2.45;;;;;;;;;;5150039;27;20058;-73
2023/08/25 08:42:37;;;;;;;6.78;2.55;;;;;;;;;;5150389;27;20077;-73
2023/08/25 08:45:09;;;;;;;7.32;2.65;;;;;;;;;;5150504;27;20046;-73
2023/08/25 08:47:37;;;;;;;8.30;2.33;;;;;;;;;;5150399;27;20091;-74
2023/08/25 08:50:09;;;;;;;9.48;2.38;;;;;;;;;;5150307;27;20047;-75
2023/08/25 08:52:36;;;;;;;5.10;2.10;;;;;;;;;;5148375;27;20412;-73
2023/08/25 08:55:06;;;;;;;7.80;2.53;;;;;;;;;;5149834;27;20518;-73
2023/08/25 08:57:32;;;;;;;6.00;2.63;;;;;;;;;;5149893;27;20503;-73
2023/08/25 08:59:59;;;;;;;5.18;1.98;;;;;;;;;;5148985;27;20042;-73
2023/08/25 09:02:28;;;;;;;6.40;2.40;;;;;;;;;;5150033;27;20051;-73
2023/08/25 09:05:00;;;;;;;6.28;2.30;;;;;;;;;;5150117;27;20047;-73
2023/08/25 09:07:28;;;;;;;8.63;2.50;;;;;;;;;;5149608;27;20047;-73
2023/08/25 09:09:57;;;;;;;5.38;2.70;;;;;;;;;;5149559;27;20043;-73
2023/08/25 09:12:25;;;;;;;5.03;2.15;;;;;;;;;;5148547;27;20052;-73
2023/08/25 09:14:51;;;;;;;6.53;2.00;;;;;;;;;;5149816;27;20424;-72
2023/08/25 09:17:19;;;;;;;6.63;2.30;;;;;;;;;;5149678;27;20047;-73
2023/08/25 09:19:45;;;;;;;6.45;2.40;;;;;;;;;;5149913;27;20512;-73
2023/08/25 09:22:16;;;;;;;6.35;2.05;;;;;;;;;;5149606;27;20051;-72
2023/08/25 09:24:43;;;;;;;5.22;2.15;;;;;;;;;;5149608;27;20409;-73
2023/08/25 09:27:26;;;;;;;5.35;2.30;;;;;;;;;;5151468;27;20453;-73
2023/08/25 09:30:04;;;;;;;4.78;2.20;;;;;;;;;;5153338;27;20042;-73
2023/08/25 09:32:32;;;;;;;6.40;2.03;;;;;;;;;;5153213;27;20054;-73
2023/08/25 09:35:14;;;;;;;6.25;2.17;;;;;;;;;;5153438;27;20070;-74
2023/08/25 09:37:42;;;;;;;6.93;2.55;;;;;;;;;;5152934;27;20053;-73
2023/08/25 09:40:12;;;;;;;7.03;2.20;;;;;;;;;;5153636;27;20042;-72
2023/08/25 09:42:39;;;;;;;4.93;2.17;;;;;;;;;;5153040;27;20047;-74
2023/08/25 09:45:06;;;;;;;4.07;2.10;;;;;;;;;;5153416;27;20039;-73
2023/08/25 09:47:33;;;;;;;4.95;1.90;;;;;;;;;;5152706;27;20125;-73
2023/08/25 09:50:00;;;;;;;4.05;1.88;;;;;;;;;;5153039;27;20399;-73
2023/08/25 09:52:29;;;;;;;4.90;2.10;;;;;;;;;;5152607;27;20490;-73
2023/08/25 09:54:56;;;;;;;6.13;2.08;;;;;;;;;;5153337;27;20082;-73
2023/08/25 09:57:24;;;;;;;5.40;2.03;;;;;;;;;;5152591;27;20058;-73
2023/08/25 09:59:51;;;;;;;4.32;2.00;;;;;;;;;;5151823;27;20192;-73
2023/08/25 10:02:18;;;;;;;5.50;2.08;;;;;;;;;;5151164;27;20437;-74
2023/08/25 10:04:46;;;;;;;5.00;2.47;;;;;;;;;;5152742;27;20585;-73
2023/08/25 10:07:13;;;;;;;5.57;1.85;;;;;;;;;;5152565;27;20046;-73
2023/08/25 10:09:42;;;;;;;6.38;2.13;;;;;;;;;;5152709;27;20047;-73
2023/08/25 10:12:11;;;;;;;9.77;2.17;;;;;;;;;;5152568;27;20046;-74
2023/08/25 10:14:41;;;;;;;5.97;2.10;;;;;;;;;;5152723;27;20043;-73
2023/08/25 10:17:11;;;;;;;5.70;2.40;;;;;;;;;;5150895;27;20043;-73
2023/08/25 10:19:40;;;;;;;7.45;2.58;;;;;;;;;;5152741;27;20054;-73
2023/08/25 10:22:08;;;;;;;6.80;2.30;;;;;;;;;;5152340;27;20409;-74
2023/08/25 10:24:35;;;;;;;8.82;2.25;;;;;;;;;;5152068;27;20050;-74
2023/08/25 10:27:02;;;;;;;7.28;2.35;;;;;;;;;;5152008;27;20489;-73
2023/08/25 10:29:31;;;;;;;5.90;2.10;;;;;;;;;;5152436;27;20050;-74
2023/08/25 10:32:02;;;;;;;5.20;1.90;;;;;;;;;;5152194;27;20039;-73
2023/08/25 10:34:43;;;;;;;7.22;2.28;;;;;;;;;;5152188;27;20081;-73
2023/08/25 10:37:22;;;;;;;5.00;1.83;;;;;;;;;;5151592;27;20545;-72
2023/08/25 10:39:56;;;;;;;4.20;1.90;;;;;;;;;;5151637;27;20047;-73
2023/08/25 10:42:28;;;;;;;3.90;1.90;;;;;;;;;;5151801;27;20074;-73
2023/08/25 10:45:15;;;;;;;3.80;2.10;;;;;;;;;;5152177;27;20047;-73
2023/08/25 10:47:45;;;;;;;5.18;1.70;;;;;;;;;;5151709;27;20429;-73
2023/08/25 10:50:18;;;;;;;4.45;1.85;;;;;;;;;;5152043;27;20046;-73
2023/08/25 10:52:50;;;;;;;4.90;1.83;;;;;;;;;;5151607;27;20099;-73
2023/08/25 10:55:28;;;;;;;6.72;1.73;;;;;;;;;;5151946;27;20047;-74
2023/08/25 10:58:02;;;;;;;2.95;1.65;;;;;;;;;;5151434;27;20073;-73
2023/08/25 11:00:34;;;;;;;4.13;1.80;;;;;;;;;;5151810;27;20530;-73
2023/08/25 11:03:02;;;;;;;4.28;2.00;;;;;;;;;;5151279;27;20043;-75
2023/08/25 11:05:31;;;;;;;4.28;1.63;;;;;;;;;;5151683;27;20050;-74
2023/08/25 11:08:05;;;;;;;5.80;1.83;;;;;;;;;;5150905;27;20121;-74
2023/08/25 11:10:34;;;;;;;7.47;2.30;;;;;;;;;;5150256;27;20536;-73
2023/08/25 11:13:07;;;;;;;5.45;2.03;;;;;;;;;;5151264;27;20039;-74
2023/08/25 11:15:37;;;;;;;3.40;2.00;;;;;;;;;;5151194;27;20418;-74
2023/08/25 11:18:05;;;;;;;5.50;1.90;;;;;;;;;;5150992;27;20046;-73
2023/08/25 11:20:44;;;;;;;3.72;1.70;;;;;;;;;;5151795;27;20074;-74
2023/08/25 11:23:11;;;;;;;5.32;1.75;;;;;;;;;;5150783;27;20054;-73
2023/08/25 11:25:46;;;;;;;5.50;1.90;;;;;;;;;;5151570;27;20061;-73
2023/08/25 11:28:12;;;;;;;4.93;1.50;;;;;;;;;;5149854;27;20046;-74
2023/08/25 11:30:39;;;;;;;3.50;1.48;;;;;;;;;;5151012;27;20508;-74
2023/08/25 11:33:07;;;;;;;5.20;1.70;;;;;;;;;;5150820;27;20047;-74
2023/08/25 11:35:34;;;;;;;4.25;1.60;;;;;;;;;;5151254;27;20091;-75
2023/08/25 11:38:02;;;;;;;5.45;1.70;;;;;;;;;;5150294;27;20085;-73
2023/08/25 11:40:30;;;;;;;5.30;1.98;;;;;;;;;;5151031;27;20057;-73
2023/08/25 11:42:57;;;;;;;5.38;1.75;;;;;;;;;;5150787;27;20047;-73
2023/08/25 11:45:28;;;;;;;6.65;2.00;;;;;;;;;;5150892;27;20518;-74
2023/08/25 11:47:55;;;;;;;5.20;2.20;;;;;;;;;;5150409;27;20043;-73
2023/08/25 11:50:25;;;;;;;3.38;1.70;;;;;;;;;;5150477;27;20050;-74
2023/08/25 11:52:52;;;;;;;6.28;2.00;;;;;;;;;;5150464;27;20047;-73
2023/08/25 11:55:32;;;;;;;3.40;1.70;;;;;;;;;;5150780;27;20046;-73
2023/08/25 11:58:05;;;;;;;3.30;1.80;;;;;;;;;;5150339;27;20402;-73
2023/08/25 12:00:36;;;;;;;5.32;1.70;;;;;;;;;;5150750;27;20073;-74
2023/08/25 12:03:12;;;;;;;8.82;1.80;;;;;;;;;;5150262;27;20054;-74
2023/08/25 12:05:39;;;;;;;3.65;1.80;;;;;;;;;;5150373;27;20618;-73
2023/08/25 12:08:06;;;;;;;4.03;1.65;;;;;;;;;;5149961;27;20047;-73
2023/08/25 12:10:38;;;;;;;4.55;1.65;;;;;;;;;;5150213;27;20047;-73
2023/08/25 12:13:05;;;;;;;6.03;1.58;;;;;;;;;;5150245;27;20039;-74
2023/08/25 12:15:40;;;;;;;7.78;2.15;;;;;;;;;;5150470;27;20451;-73
2023/08/25 12:18:07;;;;;;;5.38;1.90;;;;;;;;;;5150237;27;20039;-74
2023/08/25 12:20:34;;;;;;;2.38;1.50;;;;;;;;;;5150553;27;20050;-73
2023/08/25 12:23:01;;;;;;;4.07;1.67;;;;;;;;;;5149800;27;20054;-74
2023/08/25 12:25:31;;;;;;;;;;;;;;;;;;5150829;27;20042;-73
2023/08/25 12:27:59;;;;;;;2.65;1.50;;;;;;;;;;5149807;27;19923;-73
2023/08/25 12:30:27;;;;;;;2.78;1.48;;;;;;;;;;5150327;27;20489;-74
2023/08/25 12:32:54;;;;;;;3.28;1.30;;;;;;;;;;5149983;27;20059;-74
2023/08/25 12:35:23;;;;;;;6.05;1.95;;;;;;;;;;5150423;27;20492;-74
2023/08/25 12:37:49;;;;;;;4.35;1.73;;;;;;;;;;5149716;27;20043;-74
2023/08/25 12:40:20;;;;;;;5.25;1.30;;;;;;;;;;5150239;27;20122;-74
2023/08/25 12:42:53;;;;;;;4.45;1.60;;;;;;;;;;5149942;27;20046;-75
2023/08/25 12:45:22;;;;;;;4.78;1.63;;;;;;;;;;5150223;27;20126;-73
2023/08/25 12:47:50;;;;;;;6.07;1.80;;;;;;;;;;5149809;27;20155;-74
2023/08/25 12:50:18;;;;;;;5.28;1.63;;;;;;;;;;5149625;27;20043;-75
2023/08/25 12:52:44;;;;;;;4.68;1.50;;;;;;;;;;5149554;27;20047;-74
2023/08/25 12:55:14;;;;;;;5.25;1.95;;;;;;;;;;5150059;27;20069;-75
2023/08/25 12:57:51;;;;;;;3.53;1.67;;;;;;;;;;5150011;27;20047;-73
2023/08/25 13:00:18;;;;;;;3.35;1.55;;;;;;;;;;5149765;27;20039;-75
2023/08/25 13:02:46;;;;;;;3.45;1.60;;;;;;;;;;5153257;27;20055;-73
2023/08/25 13:05:14;;;;;;;3.90;1.70;;;;;;;;;;5154065;27;20049;-74
2023/08/25 13:07:41;;;;;;;4.22;1.67;;;;;;;;;;5153314;27;20108;-73
2023/08/25 13:10:08;;;;;;;6.13;1.70;;;;;;;;;;5153777;27;20103;-73
2023/08/25 13:12:35;;;;;;;4.15;1.92;;;;;;;;;;5153677;27;20055;-75
2023/08/25 13:15:03;;;;;;;5.63;1.80;;;;;;;;;;5153469;27;20043;-73
2023/08/25 13:17:29;;;;;;;7.45;1.77;;;;;;;;;;5153776;27;20096;-73
2023/08/25 13:19:56;;;;;;;3.22;1.83;;;;;;;;;;5153354;27;20051;-74
2023/08/25 13:22:23;;;;;;;4.18;1.77;;;;;;;;;;5153220;27;20046;-74
2023/08/25 13:24:49;;;;;;;5.75;1.98;;;;;;;;;;5153554;27;20038;-73
2023/08/25 13:27:16;;;;;;;5.60;1.75;;;;;;;;;;5153455;27;20042;-75
2023/08/25 13:29:43;;;;;;;5.15;1.83;;;;;;;;;;5153840;27;20043;-74
2023/08/25 13:32:10;;;;;;;3.17;1.50;;;;;;;;;;5153156;27;20042;-74
2023/08/25 13:34:38;;;;;;;4.82;2.00;;;;;;;;;;5153031;27;20053;-73
2023/08/25 13:37:04;;;;;;;3.08;1.60;;;;;;;;;;5153309;27;20102;-74
2023/08/25 13:39:33;;;;;;;3.40;1.45;;;;;;;;;;5152843;27;20043;-74
2023/08/25 13:42:00;;;;;;;8.50;1.73;;;;;;;;;;5153388;27;20049;-73
2023/08/25 13:44:28;;;;;;;4.35;1.80;;;;;;;;;;5152987;27;20039;-73
2023/08/25 13:47:01;;;;;;;4.00;1.77;;;;;;;;;;5153106;27;20043;-74
2023/08/25 13:49:30;;;;;;;4.53;1.77;;;;;;;;;;5152717;27;20576;-74
2023/08/25 13:51:56;;;;;;;5.28;1.85;;;;;;;;;;5153072;27;20402;-73
2023/08/25 13:54:23;;;;;;;3.10;1.73;;;;;;;;;;5152153;27;20046;-74
2023/08/25 13:56:50;;;;;;;5.63;1.95;;;;;;;;;;5152698;27;20063;-73
2023/08/25 13:59:17;;;;;;;10.70;2.30;;;;;;;;;;5152280;27;20043;-74
2023/08/25 14:01:44;;;;;;;7.20;2.00;;;;;;;;;;5152575;27;20516;-74
2023/08/25 14:04:10;;;;;;;2.78;1.67;;;;;;;;;;5152762;27;20178;-73
2023/08/25 14:06:37;;;;;;;5.03;1.80;;;;;;;;;;5152934;27;20050;-74
2023/08/25 14:09:04;;;;;;;3.45;1.90;;;;;;;;;;5151917;27;20427;-73
2023/08/25 14:11:31;;;;;;;4.07;1.98;;;;;;;;;;5152597;27;20046;-74
2023/08/25 14:13:58;;;;;;;3.90;1.98;;;;;;;;;;5151978;27;20099;-73
2023/08/25 14:16:25;;;;;;;4.50;1.98;;;;;;;;;;5152685;27;20046;-73
2023/08/25 14:18:52;;;;;;;5.63;1.67;;;;;;;;;;5152180;27;20043;-73
2023/08/25 14:21:19;;;;;;;5.93;1.90;;;;;;;;;;5152438;27;20053;-73
2023/08/25 14:23:46;;;;;;;4.28;1.95;;;;;;;;;;5151998;27;20067;-74
2023/08/25 14:26:13;;;;;;;8.70;1.80;;;;;;;;;;5152403;27;20053;-73
2023/08/25 14:28:39;;;;;;;7.68;2.00;;;;;;;;;;5152330;27;20051;-73
2023/08/25 14:31:07;;;;;;;5.70;1.85;;;;;;;;;;5151996;27;20035;-73
2023/08/25 14:33:33;;;;;;;4.47;1.85;;;;;;;;;;5151815;27;20103;-73
2023/08/25 14:36:00;;;;;;;4.82;1.85;;;;;;;;;;5152048;27;20042;-72
2023/08/25 14:38:27;;;;;;;3.55;1.70;;;;;;;;;;5151625;27;20062;-73
2023/08/25 14:40:53;;;;;;;5.00;2.30;;;;;;;;;;5151974;27;20053;-73
2023/08/25 14:43:20;;;;;;;4.28;2.13;;;;;;;;;;5151863;27;20078;-73
2023/08/25 14:45:47;;;;;;;4.75;1.85;;;;;;;;;;5151743;27;20039;-74
2023/08/25 14:48:14;;;;;;;6.38;1.85;;;;;;;;;;5151767;27;20324;-73
2023/08/25 14:50:42;;;;;;;4.95;2.08;;;;;;;;;;5151539;27;20050;-73